sensor_id;sensor_type;location;lat;lon;timestamp;pressure;altitude;pressure_sealevel;temperature;humidity
62789;BME280;66401;42.016;21.454;2023-07-02T00:00:03;97741.00;;;18.46;100.00
62789;BME280;66401;42.016;21.454;2023-07-02T00:02:30;97719.38;;;18.49;100.00
62789;BME280;66401;42.016;21.454;2023-07-02T00:04:56;97708.25;;;18.37;100.00
62789;BME280;66401;42.016;21.454;2023-07-02T00:07:21;97677.66;;;18.41;100.00
62789;BME280;66401;42.016;21.454;2023-07-02T00:09:47;97666.19;;;18.63;100.00
62789;BME280;66401;42.016;21.454;2023-07-02T00:12:13;97664.66;;;18.77;99.13
62789;BME280;66401;42.016;21.454;2023-07-02T00:14:38;97659.63;;;18.70;100.00
62789;BME280;66401;42.016;21.454;2023-07-02T00:17:04;97668.31;;;18.66;100.00
62789;BME280;66401;42.016;21.454;2023-07-02T00:19:29;97644.31;;;18.67;99.61
62789;BME280;66401;42.016;21.454;2023-07-02T00:21:55;97647.00;;;18.77;98.10
62789;BME280;66401;42.016;21.454;2023-07-02T00:24:20;97657.78;;;18.66;99.68
62789;BME280;66401;42.016;21.454;2023-07-02T00:26:46;97662.38;;;18.38;100.00
62789;BME280;66401;42.016;21.454;2023-07-02T00:29:12;97635.38;;;18.21;100.00
62789;BME280;66401;42.016;21.454;2023-07-02T00:31:37;97637.28;;;18.30;100.00
62789;BME280;66401;42.016;21.454;2023-07-02T00:34:03;97647.56;;;18.32;100.00
62789;BME280;66401;42.016;21.454;2023-07-02T00:36:30;97641.50;;;18.31;100.00
62789;BME280;66401;42.016;21.454;2023-07-02T00:38:56;97639.22;;;18.50;100.00
62789;BME280;66401;42.016;21.454;2023-07-02T00:41:22;97626.59;;;18.57;100.00
62789;BME280;66401;42.016;21.454;2023-07-02T00:43:48;97629.81;;;18.65;98.96
62789;BME280;66401;42.016;21.454;2023-07-02T00:46:16;97642.31;;;18.37;100.00
62789;BME280;66401;42.016;21.454;2023-07-02T00:48:52;97645.97;;;18.31;100.00
62789;BME280;66401;42.016;21.454;2023-07-02T00:51:20;97648.34;;;18.27;100.00
62789;BME280;66401;42.016;21.454;2023-07-02T00:53:47;97637.00;;;18.32;100.00
62789;BME280;66401;42.016;21.454;2023-07-02T00:56:13;97644.00;;;18.53;100.00
62789;BME280;66401;42.016;21.454;2023-07-02T00:58:41;97648.22;;;18.59;100.00
62789;BME280;66401;42.016;21.454;2023-07-02T01:01:15;97630.28;;;18.62;100.00
62789;BME280;66401;42.016;21.454;2023-07-02T01:03:55;97629.28;;;18.68;100.00
62789;BME280;66401;42.016;21.454;2023-07-02T01:06:28;97628.69;;;18.55;100.00
62789;BME280;66401;42.016;21.454;2023-07-02T01:08:55;97632.91;;;18.62;100.00
62789;BME280;66401;42.016;21.454;2023-07-02T01:11:25;97649.84;;;18.66;100.00
62789;BME280;66401;42.016;21.454;2023-07-02T01:13:53;97662.25;;;18.65;100.00
62789;BME280;66401;42.016;21.454;2023-07-02T01:16:21;97655.63;;;18.63;100.00
62789;BME280;66401;42.016;21.454;2023-07-02T01:18:48;97646.69;;;18.69;99.83
62789;BME280;66401;42.016;21.454;2023-07-02T01:21:16;97631.06;;;18.62;99.35
62789;BME280;66401;42.016;21.454;2023-07-02T01:23:41;97631.91;;;18.63;98.42
62789;BME280;66401;42.016;21.454;2023-07-02T01:26:08;97631.56;;;18.49;100.00
62789;BME280;66401;42.016;21.454;2023-07-02T01:28:36;97627.06;;;18.49;99.81
62789;BME280;66401;42.016;21.454;2023-07-02T01:31:04;97624.28;;;18.14;100.00
62789;BME280;66401;42.016;21.454;2023-07-02T01:33:30;97636.34;;;18.05;100.00
62789;BME280;66401;42.016;21.454;2023-07-02T01:36:01;97637.22;;;18.15;100.00
62789;BME280;66401;42.016;21.454;2023-07-02T01:38:27;97654.00;;;18.04;100.00
62789;BME280;66401;42.016;21.454;2023-07-02T01:40:53;97662.41;;;18.01;100.00
62789;BME280;66401;42.016;21.454;2023-07-02T01:43:18;97662.78;;;18.20;100.00
62789;BME280;66401;42.016;21.454;2023-07-02T01:45:45;97673.94;;;18.32;100.00
62789;BME280;66401;42.016;21.454;2023-07-02T01:48:10;97658.50;;;18.09;100.00
62789;BME280;66401;42.016;21.454;2023-07-02T01:50:36;97656.47;;;18.21;100.00
62789;BME280;66401;42.016;21.454;2023-07-02T01:53:01;97661.72;;;18.16;100.00
62789;BME280;66401;42.016;21.454;2023-07-02T01:55:27;97657.50;;;18.15;100.00
62789;BME280;66401;42.016;21.454;2023-07-02T01:57:52;97654.28;;;18.08;100.00
62789;BME280;66401;42.016;21.454;2023-07-02T02:00:18;97654.41;;;18.28;100.00
62789;BME280;66401;42.016;21.454;2023-07-02T02:02:43;97653.63;;;18.33;100.00
62789;BME280;66401;42.016;21.454;2023-07-02T02:05:09;97661.75;;;18.21;100.00
62789;BME280;66401;42.016;21.454;2023-07-02T02:07:38;97650.41;;;18.20;100.00
62789;BME280;66401;42.016;21.454;2023-07-02T02:10:04;97660.75;;;18.32;100.00
62789;BME280;66401;42.016;21.454;2023-07-02T02:12:31;97631.22;;;18.25;100.00
62789;BME280;66401;42.016;21.454;2023-07-02T02:14:57;97652.38;;;18.45;100.00
62789;BME280;66401;42.016;21.454;2023-07-02T02:17:22;97647.59;;;18.37;100.00
62789;BME280;66401;42.016;21.454;2023-07-02T02:19:49;97653.72;;;18.48;100.00
62789;BME280;66401;42.016;21.454;2023-07-02T02:22:15;97664.00;;;18.44;100.00
62789;BME280;66401;42.016;21.454;2023-07-02T02:24:41;97639.47;;;18.44;100.00
62789;BME280;66401;42.016;21.454;2023-07-02T02:27:07;97660.03;;;18.47;100.00
62789;BME280;66401;42.016;21.454;2023-07-02T02:29:32;97654.75;;;18.47;100.00
62789;BME280;66401;42.016;21.454;2023-07-02T02:31:58;97633.13;;;18.45;100.00
62789;BME280;66401;42.016;21.454;2023-07-02T02:34:30;97631.00;;;18.42;100.00
62789;BME280;66401;42.016;21.454;2023-07-02T02:36:56;97644.00;;;18.53;100.00
62789;BME280;66401;42.016;21.454;2023-07-02T02:39:22;97640.78;;;18.51;100.00
62789;BME280;66401;42.016;21.454;2023-07-02T02:41:47;97634.97;;;18.44;100.00
62789;BME280;66401;42.016;21.454;2023-07-02T02:44:13;97625.31;;;18.08;100.00
62789;BME280;66401;42.016;21.454;2023-07-02T02:46:38;97626.06;;;18.03;100.00
62789;BME280;66401;42.016;21.454;2023-07-02T02:49:03;97619.72;;;17.99;100.00
62789;BME280;66401;42.016;21.454;2023-07-02T02:51:29;97615.63;;;18.18;100.00
62789;BME280;66401;42.016;21.454;2023-07-02T02:53:54;97606.91;;;18.23;100.00
62789;BME280;66401;42.016;21.454;2023-07-02T02:56:20;97595.34;;;18.29;100.00
62789;BME280;66401;42.016;21.454;2023-07-02T02:58:45;97590.25;;;18.07;100.00
62789;BME280;66401;42.016;21.454;2023-07-02T03:01:11;97622.09;;;17.95;100.00
62789;BME280;66401;42.016;21.454;2023-07-02T03:03:38;97626.13;;;17.71;100.00
62789;BME280;66401;42.016;21.454;2023-07-02T03:06:05;97620.94;;;17.81;100.00
62789;BME280;66401;42.016;21.454;2023-07-02T03:08:30;97637.56;;;17.87;100.00
62789;BME280;66401;42.016;21.454;2023-07-02T03:10:56;97637.34;;;17.93;100.00
62789;BME280;66401;42.016;21.454;2023-07-02T03:13:22;97636.38;;;18.10;100.00
62789;BME280;66401;42.016;21.454;2023-07-02T03:15:47;97647.50;;;18.17;100.00
62789;BME280;66401;42.016;21.454;2023-07-02T03:18:13;97638.56;;;18.23;100.00
62789;BME280;66401;42.016;21.454;2023-07-02T03:20:38;97624.31;;;18.19;100.00
62789;BME280;66401;42.016;21.454;2023-07-02T03:26:25;97632.63;;;17.95;100.00
62789;BME280;66401;42.016;21.454;2023-07-02T03:28:50;97618.16;;;18.03;100.00
62789;BME280;66401;42.016;21.454;2023-07-02T03:31:16;97622.72;;;18.23;100.00
62789;BME280;66401;42.016;21.454;2023-07-02T03:33:41;97618.34;;;18.34;100.00
62789;BME280;66401;42.016;21.454;2023-07-02T03:36:07;97605.91;;;18.29;100.00
62789;BME280;66401;42.016;21.454;2023-07-02T03:38:32;97600.69;;;18.39;100.00
62789;BME280;66401;42.016;21.454;2023-07-02T03:44:19;97605.94;;;18.39;100.00
62789;BME280;66401;42.016;21.454;2023-07-02T03:46:45;97620.13;;;18.28;100.00
62789;BME280;66401;42.016;21.454;2023-07-02T03:49:10;97624.94;;;18.41;100.00
62789;BME280;66401;42.016;21.454;2023-07-02T03:51:36;97611.66;;;18.16;100.00
62789;BME280;66401;42.016;21.454;2023-07-02T03:54:01;97620.88;;;18.18;100.00
62789;BME280;66401;42.016;21.454;2023-07-02T03:56:27;97621.69;;;18.19;100.00
62789;BME280;66401;42.016;21.454;2023-07-02T03:58:53;97610.34;;;18.18;100.00
62789;BME280;66401;42.016;21.454;2023-07-02T04:01:18;97619.66;;;18.41;100.00
62789;BME280;66401;42.016;21.454;2023-07-02T04:03:53;97636.59;;;18.55;100.00
62789;BME280;66401;42.016;21.454;2023-07-02T04:06:19;97614.41;;;18.51;100.00
62789;BME280;66401;42.016;21.454;2023-07-02T04:08:45;97630.06;;;18.68;100.00
62789;BME280;66401;42.016;21.454;2023-07-02T04:11:11;97634.81;;;18.71;100.00
62789;BME280;66401;42.016;21.454;2023-07-02T04:13:37;97631.41;;;18.66;100.00
62789;BME280;66401;42.016;21.454;2023-07-02T04:16:03;97633.50;;;18.69;100.00
62789;BME280;66401;42.016;21.454;2023-07-02T04:18:29;97645.16;;;18.78;100.00
62789;BME280;66401;42.016;21.454;2023-07-02T04:20:55;97646.22;;;18.82;99.62
62789;BME280;66401;42.016;21.454;2023-07-02T04:23:21;97629.81;;;18.65;100.00
62789;BME280;66401;42.016;21.454;2023-07-02T04:25:46;97646.72;;;18.79;100.00
62789;BME280;66401;42.016;21.454;2023-07-02T04:28:12;97649.41;;;18.84;100.00
62789;BME280;66401;42.016;21.454;2023-07-02T04:30:37;97652.78;;;18.79;100.00
62789;BME280;66401;42.016;21.454;2023-07-02T04:33:03;97644.63;;;18.76;100.00
62789;BME280;66401;42.016;21.454;2023-07-02T04:35:30;97657.56;;;18.82;100.00
62789;BME280;66401;42.016;21.454;2023-07-02T04:37:55;97665.19;;;18.79;100.00
62789;BME280;66401;42.016;21.454;2023-07-02T04:40:21;97661.28;;;18.86;100.00
62789;BME280;66401;42.016;21.454;2023-07-02T04:42:46;97666.28;;;18.88;100.00
62789;BME280;66401;42.016;21.454;2023-07-02T04:45:13;97674.16;;;18.73;100.00
62789;BME280;66401;42.016;21.454;2023-07-02T04:47:42;97682.56;;;18.22;100.00
62789;BME280;66401;42.016;21.454;2023-07-02T04:50:07;97674.97;;;18.26;100.00
62789;BME280;66401;42.016;21.454;2023-07-02T04:52:33;97691.84;;;18.30;100.00
62789;BME280;66401;42.016;21.454;2023-07-02T04:54:59;97696.38;;;18.40;100.00
62789;BME280;66401;42.016;21.454;2023-07-02T04:57:24;97674.03;;;18.52;100.00
62789;BME280;66401;42.016;21.454;2023-07-02T04:59:50;97682.09;;;18.78;99.37
62789;BME280;66401;42.016;21.454;2023-07-02T05:02:15;97686.53;;;18.67;100.00
62789;BME280;66401;42.016;21.454;2023-07-02T05:04:41;97686.63;;;18.93;99.82
62789;BME280;66401;42.016;21.454;2023-07-02T05:10:27;97692.66;;;18.88;100.00
62789;BME280;66401;42.016;21.454;2023-07-02T05:12:53;97692.72;;;19.03;98.29
62789;BME280;66401;42.016;21.454;2023-07-02T05:15:18;97687.19;;;19.05;98.59
62789;BME280;66401;42.016;21.454;2023-07-02T05:17:44;97687.94;;;18.95;100.00
62789;BME280;66401;42.016;21.454;2023-07-02T05:20:10;97685.28;;;18.85;100.00
62789;BME280;66401;42.016;21.454;2023-07-02T05:22:35;97674.19;;;18.83;100.00
62789;BME280;66401;42.016;21.454;2023-07-02T05:25:01;97684.81;;;19.03;100.00
62789;BME280;66401;42.016;21.454;2023-07-02T05:27:26;97671.03;;;18.86;100.00
62789;BME280;66401;42.016;21.454;2023-07-02T05:29:52;97670.00;;;18.97;99.71
62789;BME280;66401;42.016;21.454;2023-07-02T05:32:17;97682.97;;;19.19;97.87
62789;BME280;66401;42.016;21.454;2023-07-02T05:34:43;97689.63;;;19.42;97.66
62789;BME280;66401;42.016;21.454;2023-07-02T05:37:08;97685.16;;;19.53;96.45
62789;BME280;66401;42.016;21.454;2023-07-02T05:39:34;97681.19;;;19.45;97.77
62789;BME280;66401;42.016;21.454;2023-07-02T05:41:59;97682.78;;;19.51;98.04
62789;BME280;66401;42.016;21.454;2023-07-02T05:44:25;97663.75;;;19.44;96.07
62789;BME280;66401;42.016;21.454;2023-07-02T05:46:50;97675.94;;;19.65;95.08
62789;BME280;66401;42.016;21.454;2023-07-02T05:49:15;97688.09;;;19.77;92.09
62789;BME280;66401;42.016;21.454;2023-07-02T05:51:41;97672.22;;;19.87;93.58
62789;BME280;66401;42.016;21.454;2023-07-02T05:54:07;97682.25;;;20.05;92.21
62789;BME280;66401;42.016;21.454;2023-07-02T05:56:32;97678.56;;;19.96;92.73
62789;BME280;66401;42.016;21.454;2023-07-02T05:58:58;97676.44;;;19.52;92.82
62789;BME280;66401;42.016;21.454;2023-07-02T06:01:23;97692.84;;;19.85;93.91
62789;BME280;66401;42.016;21.454;2023-07-02T06:03:49;97690.19;;;19.95;93.48
62789;BME280;66401;42.016;21.454;2023-07-02T06:06:15;97684.88;;;19.54;95.66
62789;BME280;66401;42.016;21.454;2023-07-02T06:08:40;97679.88;;;19.53;96.84
62789;BME280;66401;42.016;21.454;2023-07-02T06:11:06;97683.31;;;19.68;99.48
62789;BME280;66401;42.016;21.454;2023-07-02T06:13:31;97685.31;;;19.00;95.79
62789;BME280;66401;42.016;21.454;2023-07-02T06:15:57;97694.88;;;19.16;96.61
62789;BME280;66401;42.016;21.454;2023-07-02T06:18:22;97690.69;;;19.51;95.79
62789;BME280;66401;42.016;21.454;2023-07-02T06:20:48;97695.41;;;19.39;94.78
62789;BME280;66401;42.016;21.454;2023-07-02T06:23:13;97700.22;;;19.57;94.28
62789;BME280;66401;42.016;21.454;2023-07-02T06:25:39;97692.06;;;19.79;95.25
62789;BME280;66401;42.016;21.454;2023-07-02T06:28:04;97674.84;;;20.02;97.31
62789;BME280;66401;42.016;21.454;2023-07-02T06:30:30;97686.47;;;20.06;90.70
62789;BME280;66401;42.016;21.454;2023-07-02T06:32:55;97679.63;;;20.00;88.85
62789;BME280;66401;42.016;21.454;2023-07-02T06:35:21;97679.53;;;20.36;92.43
62789;BME280;66401;42.016;21.454;2023-07-02T06:37:46;97669.19;;;20.60;90.72
62789;BME280;66401;42.016;21.454;2023-07-02T06:40:12;97674.56;;;20.94;88.58
62789;BME280;66401;42.016;21.454;2023-07-02T06:42:38;97681.09;;;21.11;85.28
62789;BME280;66401;42.016;21.454;2023-07-02T06:45:04;97681.66;;;20.49;85.14
62789;BME280;66401;42.016;21.454;2023-07-02T06:47:30;97688.69;;;20.79;87.25
62789;BME280;66401;42.016;21.454;2023-07-02T06:49:55;97673.78;;;20.93;85.69
62789;BME280;66401;42.016;21.454;2023-07-02T06:52:47;97683.97;;;21.20;82.09
62789;BME280;66401;42.016;21.454;2023-07-02T06:55:12;97673.91;;;21.27;85.17
62789;BME280;66401;42.016;21.454;2023-07-02T06:57:44;97661.16;;;21.29;82.97
62789;BME280;66401;42.016;21.454;2023-07-02T07:03:35;97683.88;;;21.40;84.17
62789;BME280;66401;42.016;21.454;2023-07-02T07:06:00;97673.91;;;21.61;82.45
62789;BME280;66401;42.016;21.454;2023-07-02T07:08:26;97676.72;;;21.75;80.17
62789;BME280;66401;42.016;21.454;2023-07-02T07:10:52;97666.91;;;21.76;79.54
62789;BME280;66401;42.016;21.454;2023-07-02T07:13:17;97676.56;;;21.90;82.07
62789;BME280;66401;42.016;21.454;2023-07-02T07:15:43;97683.47;;;21.91;80.01
62789;BME280;66401;42.016;21.454;2023-07-02T07:18:09;97660.59;;;22.00;84.86
62789;BME280;66401;42.016;21.454;2023-07-02T07:20:35;97669.06;;;22.03;76.80
62789;BME280;66401;42.016;21.454;2023-07-02T07:23:02;97672.25;;;21.99;75.93
62789;BME280;66401;42.016;21.454;2023-07-02T07:25:37;97672.88;;;21.91;83.36
62789;BME280;66401;42.016;21.454;2023-07-02T07:28:03;97667.78;;;21.95;77.97
62789;BME280;66401;42.016;21.454;2023-07-02T07:30:29;97664.50;;;21.45;77.11
62789;BME280;66401;42.016;21.454;2023-07-02T07:36:16;97679.41;;;21.99;77.57
62789;BME280;66401;42.016;21.454;2023-07-02T07:38:43;97679.09;;;21.77;77.56
62789;BME280;66401;42.016;21.454;2023-07-02T07:41:09;97672.75;;;22.07;76.88
62789;BME280;66401;42.016;21.454;2023-07-02T07:43:34;97667.84;;;22.19;77.25
62789;BME280;66401;42.016;21.454;2023-07-02T07:46:00;97671.06;;;22.16;77.22
62789;BME280;66401;42.016;21.454;2023-07-02T07:48:25;97678.41;;;21.95;75.18
62789;BME280;66401;42.016;21.454;2023-07-02T07:50:51;97673.03;;;22.00;77.31
62789;BME280;66401;42.016;21.454;2023-07-02T07:53:17;97656.81;;;22.12;76.27
62789;BME280;66401;42.016;21.454;2023-07-02T07:55:42;97659.34;;;22.22;72.36
62789;BME280;66401;42.016;21.454;2023-07-02T07:58:08;97660.31;;;22.31;72.93
62789;BME280;66401;42.016;21.454;2023-07-02T08:00:33;97656.00;;;22.59;75.45
62789;BME280;66401;42.016;21.454;2023-07-02T08:02:58;97657.63;;;22.79;73.14
62789;BME280;66401;42.016;21.454;2023-07-02T08:05:26;97673.94;;;22.91;75.89
62789;BME280;66401;42.016;21.454;2023-07-02T08:07:51;97661.38;;;22.97;74.65
62789;BME280;66401;42.016;21.454;2023-07-02T08:10:18;97662.59;;;23.04;72.56
62789;BME280;66401;42.016;21.454;2023-07-02T08:12:44;97668.19;;;22.84;71.09
62789;BME280;66401;42.016;21.454;2023-07-02T08:15:13;97654.31;;;22.68;71.49
62789;BME280;66401;42.016;21.454;2023-07-02T08:17:39;97660.41;;;22.45;71.96
62789;BME280;66401;42.016;21.454;2023-07-02T08:20:29;97664.69;;;22.65;72.50
62789;BME280;66401;42.016;21.454;2023-07-02T08:22:55;97648.88;;;22.78;72.26
62789;BME280;66401;42.016;21.454;2023-07-02T08:25:20;97663.47;;;22.76;70.87
62789;BME280;66401;42.016;21.454;2023-07-02T08:27:51;97653.38;;;22.06;72.54
62789;BME280;66401;42.016;21.454;2023-07-02T08:30:16;97663.97;;;22.06;72.93
62789;BME280;66401;42.016;21.454;2023-07-02T08:32:42;97666.75;;;22.49;72.78
62789;BME280;66401;42.016;21.454;2023-07-02T08:35:08;97664.78;;;22.78;73.38
62789;BME280;66401;42.016;21.454;2023-07-02T08:37:33;97662.09;;;22.12;71.74
62789;BME280;66401;42.016;21.454;2023-07-02T08:39:59;97662.41;;;22.05;72.44
62789;BME280;66401;42.016;21.454;2023-07-02T08:42:32;97662.53;;;22.19;73.60
62789;BME280;66401;42.016;21.454;2023-07-02T08:44:59;97655.97;;;22.40;71.93
62789;BME280;66401;42.016;21.454;2023-07-02T08:47:25;97669.94;;;22.70;71.06
62789;BME280;66401;42.016;21.454;2023-07-02T08:49:51;97666.22;;;22.47;70.29
62789;BME280;66401;42.016;21.454;2023-07-02T08:52:17;97662.59;;;22.62;72.28
62789;BME280;66401;42.016;21.454;2023-07-02T08:54:42;97660.81;;;23.00;71.41
62789;BME280;66401;42.016;21.454;2023-07-02T08:57:09;97664.13;;;23.10;68.36
62789;BME280;66401;42.016;21.454;2023-07-02T09:02:37;97653.97;;;23.50;70.68
62789;BME280;66401;42.016;21.454;2023-07-02T09:05:03;97649.25;;;23.80;68.30
62789;BME280;66401;42.016;21.454;2023-07-02T09:10:35;97644.34;;;23.87;64.70
62789;BME280;66401;42.016;21.454;2023-07-02T09:13:07;97632.81;;;23.78;65.79
62789;BME280;66401;42.016;21.454;2023-07-02T09:15:39;97648.22;;;23.94;66.52
62789;BME280;66401;42.016;21.454;2023-07-02T09:18:19;97643.59;;;24.14;68.38
62789;BME280;66401;42.016;21.454;2023-07-02T09:20:45;97645.97;;;24.15;65.22
62789;BME280;66401;42.016;21.454;2023-07-02T09:23:11;97643.13;;;24.39;66.39
62789;BME280;66401;42.016;21.454;2023-07-02T09:25:38;97644.59;;;24.32;64.40
62789;BME280;66401;42.016;21.454;2023-07-02T09:28:17;97652.41;;;24.55;66.38
62789;BME280;66401;42.016;21.454;2023-07-02T09:30:56;97643.81;;;24.72;63.39
62789;BME280;66401;42.016;21.454;2023-07-02T09:33:27;97629.06;;;24.89;66.62
62789;BME280;66401;42.016;21.454;2023-07-02T09:35:53;97627.56;;;24.33;63.67
62789;BME280;66401;42.016;21.454;2023-07-02T09:38:22;97635.34;;;24.43;63.46
62789;BME280;66401;42.016;21.454;2023-07-02T09:40:52;97635.31;;;24.70;62.88
62789;BME280;66401;42.016;21.454;2023-07-02T09:43:19;97618.78;;;24.96;62.68
62789;BME280;66401;42.016;21.454;2023-07-02T09:45:46;97629.63;;;25.35;64.05
62789;BME280;66401;42.016;21.454;2023-07-02T09:48:16;97617.31;;;24.90;62.36
62789;BME280;66401;42.016;21.454;2023-07-02T09:50:47;97621.72;;;25.08;64.72
62789;BME280;66401;42.016;21.454;2023-07-02T09:53:13;97632.16;;;25.18;63.79
62789;BME280;66401;42.016;21.454;2023-07-02T09:55:39;97627.56;;;25.32;62.57
62789;BME280;66401;42.016;21.454;2023-07-02T09:58:07;97625.09;;;25.00;63.44
62789;BME280;66401;42.016;21.454;2023-07-02T10:00:33;97629.00;;;25.16;62.83
62789;BME280;66401;42.016;21.454;2023-07-02T10:02:59;97626.66;;;25.15;60.18
62789;BME280;66401;42.016;21.454;2023-07-02T10:05:34;97614.97;;;25.47;61.82
62789;BME280;66401;42.016;21.454;2023-07-02T10:08:15;97627.31;;;25.87;59.67
62789;BME280;66401;42.016;21.454;2023-07-02T10:10:46;97615.38;;;25.85;58.21
62789;BME280;66401;42.016;21.454;2023-07-02T10:13:12;97615.31;;;25.76;59.24
62789;BME280;66401;42.016;21.454;2023-07-02T10:15:37;97603.16;;;25.39;60.23
62789;BME280;66401;42.016;21.454;2023-07-02T10:18:04;97617.06;;;25.81;59.71
62789;BME280;66401;42.016;21.454;2023-07-02T10:20:38;97597.75;;;25.53;59.05
62789;BME280;66401;42.016;21.454;2023-07-02T10:23:06;97600.66;;;25.43;59.58
62789;BME280;66401;42.016;21.454;2023-07-02T10:25:34;97609.16;;;25.45;58.65
62789;BME280;66401;42.016;21.454;2023-07-02T10:28:01;97598.16;;;25.68;58.37
62789;BME280;66401;42.016;21.454;2023-07-02T10:30:38;97600.00;;;25.37;62.19
62789;BME280;66401;42.016;21.454;2023-07-02T10:35:34;97600.66;;;25.43;61.25
62789;BME280;66401;42.016;21.454;2023-07-02T10:38:00;97601.41;;;25.34;61.92
62789;BME280;66401;42.016;21.454;2023-07-02T10:40:25;97585.34;;;25.26;62.01
62789;BME280;66401;42.016;21.454;2023-07-02T10:42:52;97588.69;;;25.31;62.45
62789;BME280;66401;42.016;21.454;2023-07-02T10:45:19;97587.56;;;25.77;61.37
62789;BME280;66401;42.016;21.454;2023-07-02T10:47:45;97577.94;;;25.99;61.12
62789;BME280;66401;42.016;21.454;2023-07-02T10:50:15;97586.28;;;26.06;61.06
62789;BME280;66401;42.016;21.454;2023-07-02T10:52:41;97571.69;;;26.12;58.79
62789;BME280;66401;42.016;21.454;2023-07-02T10:55:06;97573.97;;;25.87;60.28
62789;BME280;66401;42.016;21.454;2023-07-02T11:00:53;97578.00;;;26.33;60.88
62789;BME280;66401;42.016;21.454;2023-07-02T11:03:24;97570.59;;;26.13;58.13
62789;BME280;66401;42.016;21.454;2023-07-02T11:05:50;97560.53;;;25.48;60.51
62789;BME280;66401;42.016;21.454;2023-07-02T11:08:17;97576.44;;;25.08;61.03
62789;BME280;66401;42.016;21.454;2023-07-02T11:10:43;97573.88;;;25.70;62.40
62789;BME280;66401;42.016;21.454;2023-07-02T11:13:19;97571.28;;;26.27;58.09
62789;BME280;66401;42.016;21.454;2023-07-02T11:15:46;97564.59;;;26.56;58.18
62789;BME280;66401;42.016;21.454;2023-07-02T11:18:13;97549.53;;;26.77;56.50
62789;BME280;66401;42.016;21.454;2023-07-02T11:20:40;97554.72;;;27.17;57.59
62789;BME280;66401;42.016;21.454;2023-07-02T11:26:38;97552.69;;;27.22;56.79
62789;BME280;66401;42.016;21.454;2023-07-02T11:29:03;97560.66;;;27.31;56.42
62789;BME280;66401;42.016;21.454;2023-07-02T11:31:33;97541.34;;;26.82;56.99
62789;BME280;66401;42.016;21.454;2023-07-02T11:33:58;97552.19;;;26.60;57.93
62789;BME280;66401;42.016;21.454;2023-07-02T11:36:24;97542.97;;;26.09;56.56
62789;BME280;66401;42.016;21.454;2023-07-02T11:38:51;97542.91;;;26.48;57.39
62789;BME280;66401;42.016;21.454;2023-07-02T11:41:18;97529.84;;;26.38;58.18
62789;BME280;66401;42.016;21.454;2023-07-02T11:43:43;97519.75;;;26.18;57.22
62789;BME280;66401;42.016;21.454;2023-07-02T11:46:09;97520.63;;;26.05;56.54
62789;BME280;66401;42.016;21.454;2023-07-02T11:48:34;97513.84;;;26.38;58.63
62789;BME280;66401;42.016;21.454;2023-07-02T11:51:00;97525.25;;;26.30;56.20
62789;BME280;66401;42.016;21.454;2023-07-02T11:53:25;97519.44;;;26.28;57.13
62789;BME280;66401;42.016;21.454;2023-07-02T11:55:51;97525.84;;;26.10;55.29
62789;BME280;66401;42.016;21.454;2023-07-02T11:58:16;97530.41;;;26.09;56.56
62789;BME280;66401;42.016;21.454;2023-07-02T12:00:42;97521.91;;;26.07;56.00
62789;BME280;66401;42.016;21.454;2023-07-02T12:03:07;97499.81;;;26.24;56.14
62789;BME280;66401;42.016;21.454;2023-07-02T12:05:33;97518.03;;;26.31;56.13
62789;BME280;66401;42.016;21.454;2023-07-02T12:07:58;97504.53;;;26.27;55.25
62789;BME280;66401;42.016;21.454;2023-07-02T12:10:24;97509.72;;;26.32;55.15
62789;BME280;66401;42.016;21.454;2023-07-02T12:12:49;97506.16;;;26.45;56.56
62789;BME280;66401;42.016;21.454;2023-07-02T12:15:15;97514.78;;;26.60;56.51
62789;BME280;66401;42.016;21.454;2023-07-02T12:17:43;97503.16;;;26.38;54.83
62789;BME280;66401;42.016;21.454;2023-07-02T12:20:09;97510.88;;;26.48;54.80
62789;BME280;66401;42.016;21.454;2023-07-02T12:22:34;97507.50;;;26.34;55.51
62789;BME280;66401;42.016;21.454;2023-07-02T12:25:04;97517.41;;;26.34;56.76
62789;BME280;66401;42.016;21.454;2023-07-02T12:27:30;97510.22;;;26.43;57.33
62789;BME280;66401;42.016;21.454;2023-07-02T12:29:56;97515.72;;;26.46;55.66
62789;BME280;66401;42.016;21.454;2023-07-02T12:32:21;97516.59;;;26.16;57.50
62789;BME280;66401;42.016;21.454;2023-07-02T12:34:47;97505.13;;;26.24;55.01
62789;BME280;66401;42.016;21.454;2023-07-02T12:37:12;97499.72;;;26.46;55.49
62789;BME280;66401;42.016;21.454;2023-07-02T12:39:42;97517.59;;;26.72;56.79
62789;BME280;66401;42.016;21.454;2023-07-02T12:42:07;97495.44;;;26.89;55.32
62789;BME280;66401;42.016;21.454;2023-07-02T12:44:33;97482.09;;;26.80;54.49
62789;BME280;66401;42.016;21.454;2023-07-02T12:46:58;97482.72;;;26.94;56.88
62789;BME280;66401;42.016;21.454;2023-07-02T12:49:24;97493.41;;;26.94;53.78
62789;BME280;66401;42.016;21.454;2023-07-02T12:51:49;97485.88;;;26.79;52.88
62789;BME280;66401;42.016;21.454;2023-07-02T12:54:15;97482.91;;;26.46;51.16
62789;BME280;66401;42.016;21.454;2023-07-02T12:56:40;97496.41;;;26.49;54.20
62789;BME280;66401;42.016;21.454;2023-07-02T12:59:06;97498.75;;;26.77;54.12
62789;BME280;66401;42.016;21.454;2023-07-02T13:01:31;97494.34;;;26.81;58.15
62789;BME280;66401;42.016;21.454;2023-07-02T13:03:57;97500.81;;;27.06;54.36
62789;BME280;66401;42.016;21.454;2023-07-02T13:06:22;97478.16;;;26.86;54.22
62789;BME280;66401;42.016;21.454;2023-07-02T13:08:48;97496.69;;;27.00;57.24
62789;BME280;66401;42.016;21.454;2023-07-02T13:11:13;97497.66;;;27.13;53.46
62789;BME280;66401;42.016;21.454;2023-07-02T13:13:49;97500.59;;;27.20;54.27